sensor_id;sensor_type;location;lat;lon;timestamp;pressure;altitude;pressure_sealevel;temperature;humidity
53715;BME280;39608;55.630;37.864;2024-03-07T00:00:24;100361.84;;;-4.44;40.59
53715;BME280;39608;55.630;37.864;2024-03-07T00:05:26;100367.66;;;-4.49;41.68
53715;BME280;39608;55.630;37.864;2024-03-07T00:10:28;100359.81;;;-4.66;41.80
53715;BME280;39608;55.630;37.864;2024-03-07T00:15:31;100352.56;;;-4.72;41.87
53715;BME280;39608;55.630;37.864;2024-03-07T00:20:33;100351.78;;;-4.81;41.88
53715;BME280;39608;55.630;37.864;2024-03-07T00:25:35;100359.09;;;-4.83;41.80
53715;BME280;39608;55.630;37.864;2024-03-07T00:30:39;100353.94;;;-4.84;42.23
53715;BME280;39608;55.630;37.864;2024-03-07T00:35:41;100349.03;;;-4.95;42.39
53715;BME280;39608;55.630;37.864;2024-03-07T00:40:45;100347.28;;;-5.03;42.65
53715;BME280;39608;55.630;37.864;2024-03-07T00:45:48;100353.94;;;-5.24;43.65
53715;BME280;39608;55.630;37.864;2024-03-07T00:50:51;100349.22;;;-5.37;43.36
53715;BME280;39608;55.630;37.864;2024-03-07T00:55:53;100340.59;;;-5.39;44.02
53715;BME280;39608;55.630;37.864;2024-03-07T01:00:56;100346.22;;;-5.34;43.53
53715;BME280;39608;55.630;37.864;2024-03-07T01:05:58;100336.31;;;-5.31;43.56
53715;BME280;39608;55.630;37.864;2024-03-07T01:11:00;100335.09;;;-5.21;43.25
53715;BME280;39608;55.630;37.864;2024-03-07T01:16:05;100336.22;;;-5.15;43.15
53715;BME280;39608;55.630;37.864;2024-03-07T01:21:07;100333.25;;;-5.12;42.97
53715;BME280;39608;55.630;37.864;2024-03-07T01:26:10;100326.59;;;-5.08;43.37
53715;BME280;39608;55.630;37.864;2024-03-07T01:31:14;100322.38;;;-5.17;43.29
53715;BME280;39608;55.630;37.864;2024-03-07T01:36:16;100319.25;;;-5.29;43.58
53715;BME280;39608;55.630;37.864;2024-03-07T01:41:18;100325.38;;;-5.28;43.50
53715;BME280;39608;55.630;37.864;2024-03-07T01:46:22;100311.22;;;-5.36;43.93
53715;BME280;39608;55.630;37.864;2024-03-07T01:51:25;100313.50;;;-5.33;44.35
53715;BME280;39608;55.630;37.864;2024-03-07T01:56:27;100314.72;;;-5.52;44.49
53715;BME280;39608;55.630;37.864;2024-03-07T02:01:31;100306.97;;;-5.61;44.42
53715;BME280;39608;55.630;37.864;2024-03-07T02:06:33;100292.00;;;-5.69;44.97
53715;BME280;39608;55.630;37.864;2024-03-07T02:11:36;100300.09;;;-5.71;45.21
53715;BME280;39608;55.630;37.864;2024-03-07T02:16:39;100293.66;;;-5.85;45.26
53715;BME280;39608;55.630;37.864;2024-03-07T02:22:03;100291.19;;;-5.86;45.46
53715;BME280;39608;55.630;37.864;2024-03-07T02:27:05;100293.16;;;-5.88;45.83
53715;BME280;39608;55.630;37.864;2024-03-07T02:32:08;100294.84;;;-5.87;45.37
53715;BME280;39608;55.630;37.864;2024-03-07T02:37:11;100293.84;;;-5.86;46.07
53715;BME280;39608;55.630;37.864;2024-03-07T02:42:14;100294.66;;;-5.94;45.76
53715;BME280;39608;55.630;37.864;2024-03-07T02:47:16;100289.94;;;-6.07;46.18
53715;BME280;39608;55.630;37.864;2024-03-07T02:52:20;100283.34;;;-6.19;46.58
53715;BME280;39608;55.630;37.864;2024-03-07T02:57:22;100281.03;;;-6.30;47.23
53715;BME280;39608;55.630;37.864;2024-03-07T03:02:23;100271.47;;;-6.40;47.19
53715;BME280;39608;55.630;37.864;2024-03-07T03:07:27;100263.25;;;-6.45;47.30
53715;BME280;39608;55.630;37.864;2024-03-07T03:12:29;100261.91;;;-6.57;47.33
53715;BME280;39608;55.630;37.864;2024-03-07T03:17:32;100268.00;;;-6.57;47.44
53715;BME280;39608;55.630;37.864;2024-03-07T03:22:35;100270.00;;;-6.50;46.93
53715;BME280;39608;55.630;37.864;2024-03-07T03:27:37;100272.13;;;-6.46;47.45
53715;BME280;39608;55.630;37.864;2024-03-07T03:32:40;100268.00;;;-6.48;47.19
53715;BME280;39608;55.630;37.864;2024-03-07T03:37:44;100256.31;;;-6.54;47.60
53715;BME280;39608;55.630;37.864;2024-03-07T03:42:46;100275.44;;;-6.60;47.68
53715;BME280;39608;55.630;37.864;2024-03-07T03:47:49;100270.78;;;-6.66;47.63
53715;BME280;39608;55.630;37.864;2024-03-07T03:52:53;100271.28;;;-6.71;47.80
53715;BME280;39608;55.630;37.864;2024-03-07T03:57:55;100275.75;;;-6.80;47.86
53715;BME280;39608;55.630;37.864;2024-03-07T04:02:57;100266.31;;;-6.91;48.00
53715;BME280;39608;55.630;37.864;2024-03-07T04:08:00;100264.66;;;-6.92;48.75
53715;BME280;39608;55.630;37.864;2024-03-07T04:13:03;100257.72;;;-6.93;48.67
53715;BME280;39608;55.630;37.864;2024-03-07T04:18:06;100261.50;;;-6.95;48.70
53715;BME280;39608;55.630;37.864;2024-03-07T04:23:09;100254.28;;;-6.93;48.54
53715;BME280;39608;55.630;37.864;2024-03-07T04:28:11;100250.00;;;-6.94;48.85
53715;BME280;39608;55.630;37.864;2024-03-07T04:33:13;100239.94;;;-6.99;48.42
53715;BME280;39608;55.630;37.864;2024-03-07T04:38:17;100246.88;;;-6.90;48.19
53715;BME280;39608;55.630;37.864;2024-03-07T04:43:19;100246.22;;;-6.92;48.55
53715;BME280;39608;55.630;37.864;2024-03-07T04:48:21;100251.50;;;-6.83;48.12
53715;BME280;39608;55.630;37.864;2024-03-07T04:53:25;100239.81;;;-6.73;48.31
53715;BME280;39608;55.630;37.864;2024-03-07T04:58:27;100240.78;;;-6.74;48.20
53715;BME280;39608;55.630;37.864;2024-03-07T05:03:29;100243.09;;;-6.71;48.18
53715;BME280;39608;55.630;37.864;2024-03-07T05:08:34;100235.53;;;-6.65;47.72
53715;BME280;39608;55.630;37.864;2024-03-07T05:13:36;100239.78;;;-6.56;47.55
53715;BME280;39608;55.630;37.864;2024-03-07T05:18:39;100232.06;;;-6.41;47.68
53715;BME280;39608;55.630;37.864;2024-03-07T05:23:45;100237.50;;;-6.26;47.46
53715;BME280;39608;55.630;37.864;2024-03-07T05:28:47;100244.25;;;-6.15;47.05
53715;BME280;39608;55.630;37.864;2024-03-07T05:33:49;100243.38;;;-5.99;46.98
53715;BME280;39608;55.630;37.864;2024-03-07T05:38:52;100240.19;;;-5.87;46.82
53715;BME280;39608;55.630;37.864;2024-03-07T05:43:55;100247.38;;;-5.72;46.79
53715;BME280;39608;55.630;37.864;2024-03-07T05:48:57;100251.50;;;-5.61;46.51
53715;BME280;39608;55.630;37.864;2024-03-07T05:54:02;100240.38;;;-5.48;46.21
53715;BME280;39608;55.630;37.864;2024-03-07T05:59:07;100232.88;;;-5.28;45.82
53715;BME280;39608;55.630;37.864;2024-03-07T06:04:10;100214.91;;;-5.10;45.49
53715;BME280;39608;55.630;37.864;2024-03-07T06:09:15;100226.19;;;-4.93;45.15
53715;BME280;39608;55.630;37.864;2024-03-07T06:14:22;100209.72;;;-4.80;44.62
53715;BME280;39608;55.630;37.864;2024-03-07T06:19:25;100214.59;;;-4.69;44.14
53715;BME280;39608;55.630;37.864;2024-03-07T06:24:28;100205.59;;;-4.59;43.95
53715;BME280;39608;55.630;37.864;2024-03-07T06:29:30;100201.53;;;-4.47;43.83
53715;BME280;39608;55.630;37.864;2024-03-07T06:34:32;100198.28;;;-4.34;43.97
53715;BME280;39608;55.630;37.864;2024-03-07T06:39:36;100200.22;;;-4.13;43.49
53715;BME280;39608;55.630;37.864;2024-03-07T06:44:38;100197.94;;;-4.01;43.32
53715;BME280;39608;55.630;37.864;2024-03-07T06:49:40;100192.28;;;-3.83;42.98
53715;BME280;39608;55.630;37.864;2024-03-07T06:54:44;100179.38;;;-3.71;42.56
53715;BME280;39608;55.630;37.864;2024-03-07T06:59:46;100187.84;;;-3.61;42.51
53715;BME280;39608;55.630;37.864;2024-03-07T07:04:48;100176.34;;;-3.53;42.20
53715;BME280;39608;55.630;37.864;2024-03-07T07:09:52;100186.16;;;-3.32;42.10
53715;BME280;39608;55.630;37.864;2024-03-07T07:14:55;100177.53;;;-3.19;42.10
53715;BME280;39608;55.630;37.864;2024-03-07T07:19:57;100168.84;;;-3.13;41.53
53715;BME280;39608;55.630;37.864;2024-03-07T07:25:03;100171.66;;;-2.93;41.90
53715;BME280;39608;55.630;37.864;2024-03-07T07:30:07;100176.06;;;-2.79;41.50
53715;BME280;39608;55.630;37.864;2024-03-07T07:35:11;100181.31;;;-2.64;41.29
53715;BME280;39608;55.630;37.864;2024-03-07T07:40:16;100179.25;;;-2.40;41.09
53715;BME280;39608;55.630;37.864;2024-03-07T07:45:21;100162.88;;;-2.15;40.46
53715;BME280;39608;55.630;37.864;2024-03-07T07:50:24;100150.94;;;-1.91;40.33
53715;BME280;39608;55.630;37.864;2024-03-07T07:55:28;100150.88;;;-1.63;40.37
53715;BME280;39608;55.630;37.864;2024-03-07T08:00:33;100150.34;;;-1.38;39.15
53715;BME280;39608;55.630;37.864;2024-03-07T08:05:37;100136.88;;;-1.23;39.26
53715;BME280;39608;55.630;37.864;2024-03-07T08:10:41;100128.53;;;-0.87;38.32
53715;BME280;39608;55.630;37.864;2024-03-07T08:15:46;100125.63;;;-0.45;38.01
53715;BME280;39608;55.630;37.864;2024-03-07T08:20:48;100119.00;;;-0.09;37.94
53715;BME280;39608;55.630;37.864;2024-03-07T08:25:53;100126.41;;;0.41;36.86
53715;BME280;39608;55.630;37.864;2024-03-07T08:30:55;100122.34;;;3.18;34.24
53715;BME280;39608;55.630;37.864;2024-03-07T08:35:57;100109.59;;;8.24;28.88
53715;BME280;39608;55.630;37.864;2024-03-07T08:41:01;100119.88;;;12.30;24.62
53715;BME280;39608;55.630;37.864;2024-03-07T08:46:03;100107.16;;;15.33;21.21
53715;BME280;39608;55.630;37.864;2024-03-07T08:51:05;100094.06;;;16.15;19.83
53715;BME280;39608;55.630;37.864;2024-03-07T08:56:09;100089.28;;;16.56;19.44
53715;BME280;39608;55.630;37.864;2024-03-07T09:01:11;100092.91;;;17.56;17.95
53715;BME280;39608;55.630;37.864;2024-03-07T09:06:13;100078.09;;;17.96;16.93
53715;BME280;39608;55.630;37.864;2024-03-07T09:11:18;100079.53;;;18.53;16.41
53715;BME280;39608;55.630;37.864;2024-03-07T09:16:20;100070.06;;;17.82;15.87
53715;BME280;39608;55.630;37.864;2024-03-07T09:21:23;100065.34;;;17.53;16.21
53715;BME280;39608;55.630;37.864;2024-03-07T09:26:27;100070.22;;;18.24;15.98
53715;BME280;39608;55.630;37.864;2024-03-07T09:31:29;100065.25;;;18.81;15.70
53715;BME280;39608;55.630;37.864;2024-03-07T09:36:32;100056.56;;;19.71;14.75
53715;BME280;39608;55.630;37.864;2024-03-07T09:41:35;100059.75;;;20.47;14.44
53715;BME280;39608;55.630;37.864;2024-03-07T09:46:38;100052.88;;;18.75;15.18
53715;BME280;39608;55.630;37.864;2024-03-07T09:51:40;100049.03;;;18.25;15.65
53715;BME280;39608;55.630;37.864;2024-03-07T09:56:44;100059.50;;;19.41;14.93
53715;BME280;39608;55.630;37.864;2024-03-07T10:01:47;100054.88;;;18.44;14.97
53715;BME280;39608;55.630;37.864;2024-03-07T10:06:52;100047.03;;;18.97;14.76
53715;BME280;39608;55.630;37.864;2024-03-07T10:11:58;100049.19;;;19.38;14.53
53715;BME280;39608;55.630;37.864;2024-03-07T10:17:00;100041.72;;;20.90;13.70
53715;BME280;39608;55.630;37.864;2024-03-07T10:22:02;100038.50;;;21.80;13.22
53715;BME280;39608;55.630;37.864;2024-03-07T10:27:08;100041.13;;;21.13;13.15
53715;BME280;39608;55.630;37.864;2024-03-07T10:32:11;100043.28;;;20.91;13.64
53715;BME280;39608;55.630;37.864;2024-03-07T10:37:14;100026.34;;;20.77;13.88
53715;BME280;39608;55.630;37.864;2024-03-07T10:42:19;100017.81;;;19.76;14.13
53715;BME280;39608;55.630;37.864;2024-03-07T10:47:24;100021.56;;;20.21;14.49
53715;BME280;39608;55.630;37.864;2024-03-07T10:52:34;100015.31;;;22.76;13.18
53715;BME280;39608;55.630;37.864;2024-03-07T10:57:49;99997.66;;;22.05;12.93
53715;BME280;39608;55.630;37.864;2024-03-07T11:02:54;99995.81;;;20.98;13.25
53715;BME280;39608;55.630;37.864;2024-03-07T11:07:58;99991.84;;;21.27;13.06
53715;BME280;39608;55.630;37.864;2024-03-07T11:13:04;99996.50;;;23.51;13.94
53715;BME280;39608;55.630;37.864;2024-03-07T11:18:08;99995.41;;;21.76;12.98
53715;BME280;39608;55.630;37.864;2024-03-07T11:23:26;99992.97;;;23.27;13.37
53715;BME280;39608;55.630;37.864;2024-03-07T11:28:30;99988.31;;;21.94;12.51
53715;BME280;39608;55.630;37.864;2024-03-07T11:33:32;99967.97;;;22.38;12.81
53715;BME280;39608;55.630;37.864;2024-03-07T11:38:35;99958.09;;;21.02;13.63
53715;BME280;39608;55.630;37.864;2024-03-07T11:43:40;99957.91;;;21.43;13.65
53715;BME280;39608;55.630;37.864;2024-03-07T11:48:43;99962.47;;;20.18;13.98
53715;BME280;39608;55.630;37.864;2024-03-07T11:53:45;99956.28;;;16.37;16.66
53715;BME280;39608;55.630;37.864;2024-03-07T11:58:49;99949.88;;;13.26;19.13
53715;BME280;39608;55.630;37.864;2024-03-07T12:03:55;99941.28;;;14.48;17.72
53715;BME280;39608;55.630;37.864;2024-03-07T12:08:58;99935.97;;;13.14;18.98
53715;BME280;39608;55.630;37.864;2024-03-07T12:14:03;99931.75;;;11.17;21.05
53715;BME280;39608;55.630;37.864;2024-03-07T12:19:07;99936.09;;;9.75;21.48
53715;BME280;39608;55.630;37.864;2024-03-07T12:24:13;99920.69;;;8.89;22.61
53715;BME280;39608;55.630;37.864;2024-03-07T12:29:18;99912.38;;;8.50;23.30
53715;BME280;39608;55.630;37.864;2024-03-07T12:34:21;99901.25;;;8.36;23.47
53715;BME280;39608;55.630;37.864;2024-03-07T12:39:27;99903.38;;;8.03;24.06
53715;BME280;39608;55.630;37.864;2024-03-07T12:44:41;99892.28;;;7.79;24.25
53715;BME280;39608;55.630;37.864;2024-03-07T12:49:47;99897.06;;;7.46;24.93
53715;BME280;39608;55.630;37.864;2024-03-07T12:54:58;99887.75;;;7.16;25.17
53715;BME280;39608;55.630;37.864;2024-03-07T13:00:36;99882.50;;;6.94;25.83
53715;BME280;39608;55.630;37.864;2024-03-07T13:05:38;99884.53;;;6.66;26.11
53715;BME280;39608;55.630;37.864;2024-03-07T13:10:41;99871.34;;;7.33;25.77
53715;BME280;39608;55.630;37.864;2024-03-07T13:15:46;99879.06;;;10.40;23.16
53715;BME280;39608;55.630;37.864;2024-03-07T13:20:48;99877.31;;;12.28;21.45
53715;BME280;39608;55.630;37.864;2024-03-07T13:25:53;99869.91;;;13.22;20.60
53715;BME280;39608;55.630;37.864;2024-03-07T13:30:56;99859.19;;;13.12;20.50
53715;BME280;39608;55.630;37.864;2024-03-07T13:35:58;99874.09;;;12.73;20.32
53715;BME280;39608;55.630;37.864;2024-03-07T13:41:01;99852.94;;;11.85;21.01
53715;BME280;39608;55.630;37.864;2024-03-07T13:46:06;99863.66;;;11.13;22.73
53715;BME280;39608;55.630;37.864;2024-03-07T13:51:08;99861.56;;;9.38;24.03
53715;BME280;39608;55.630;37.864;2024-03-07T13:56:31;99856.16;;;8.16;25.08
53715;BME280;39608;55.630;37.864;2024-03-07T14:01:41;99850.22;;;7.04;26.01
53715;BME280;39608;55.630;37.864;2024-03-07T14:07:03;99852.72;;;6.30;27.15
53715;BME280;39608;55.630;37.864;2024-03-07T14:18:46;99832.25;;;5.42;27.64
53715;BME280;39608;55.630;37.864;2024-03-07T14:29:41;99820.41;;;4.72;29.91
53715;BME280;39608;55.630;37.864;2024-03-07T14:34:57;99817.75;;;4.38;29.94
53715;BME280;39608;55.630;37.864;2024-03-07T14:40:09;99827.47;;;4.22;30.45
53715;BME280;39608;55.630;37.864;2024-03-07T14:45:15;99815.84;;;3.99;30.58
53715;BME280;39608;55.630;37.864;2024-03-07T14:50:22;99819.16;;;3.89;30.89
53715;BME280;39608;55.630;37.864;2024-03-07T14:55:27;99823.78;;;3.77;30.97
53715;BME280;39608;55.630;37.864;2024-03-07T15:00:29;99814.72;;;3.49;31.83
53715;BME280;39608;55.630;37.864;2024-03-07T15:05:36;99813.56;;;3.16;31.95
53715;BME280;39608;55.630;37.864;2024-03-07T15:10:42;99809.81;;;2.88;32.48
53715;BME280;39608;55.630;37.864;2024-03-07T15:15:45;99804.38;;;2.60;32.58
53715;BME280;39608;55.630;37.864;2024-03-07T15:20:49;99814.19;;;2.42;33.05
53715;BME280;39608;55.630;37.864;2024-03-07T15:25:51;99804.97;;;2.26;33.45
53715;BME280;39608;55.630;37.864;2024-03-07T15:30:53;99813.44;;;2.11;33.31
53715;BME280;39608;55.630;37.864;2024-03-07T15:35:56;99815.19;;;2.05;33.90
53715;BME280;39608;55.630;37.864;2024-03-07T15:40:59;99808.78;;;1.95;33.88
53715;BME280;39608;55.630;37.864;2024-03-07T15:46:02;99811.34;;;2.01;34.04
53715;BME280;39608;55.630;37.864;2024-03-07T15:51:07;99802.63;;;1.94;34.48
53715;BME280;39608;55.630;37.864;2024-03-07T15:56:12;99803.78;;;1.86;34.44
53715;BME280;39608;55.630;37.864;2024-03-07T16:01:16;99803.75;;;1.75;34.51
53715;BME280;39608;55.630;37.864;2024-03-07T16:06:19;99806.06;;;1.71;34.72
53715;BME280;39608;55.630;37.864;2024-03-07T16:11:22;99811.03;;;1.56;34.73
53715;BME280;39608;55.630;37.864;2024-03-07T16:16:24;99801.50;;;1.60;34.93
53715;BME280;39608;55.630;37.864;2024-03-07T16:21:28;99791.25;;;1.57;35.17
53715;BME280;39608;55.630;37.864;2024-03-07T16:26:33;99786.50;;;1.59;35.26
53715;BME280;39608;55.630;37.864;2024-03-07T16:31:35;99785.09;;;1.56;35.32
53715;BME280;39608;55.630;37.864;2024-03-07T16:36:41;99792.09;;;1.57;35.15
53715;BME280;39608;55.630;37.864;2024-03-07T16:41:44;99786.94;;;1.44;35.44
53715;BME280;39608;55.630;37.864;2024-03-07T16:46:46;99787.13;;;1.30;35.63
53715;BME280;39608;55.630;37.864;2024-03-07T16:51:52;99804.59;;;1.14;35.56
53715;BME280;39608;55.630;37.864;2024-03-07T16:56:55;99809.84;;;1.21;36.22
53715;BME280;39608;55.630;37.864;2024-03-07T17:01:58;99801.16;;;1.26;36.16
53715;BME280;39608;55.630;37.864;2024-03-07T17:07:01;99790.28;;;1.09;36.87
53715;BME280;39608;55.630;37.864;2024-03-07T17:12:04;99792.53;;;0.93;36.78
53715;BME280;39608;55.630;37.864;2024-03-07T17:17:07;99793.13;;;0.77;37.05
53715;BME280;39608;55.630;37.864;2024-03-07T17:22:13;99795.50;;;0.66;37.54
53715;BME280;39608;55.630;37.864;2024-03-07T17:27:15;99797.88;;;0.56;37.24
53715;BME280;39608;55.630;37.864;2024-03-07T17:32:18;99791.38;;;0.52;38.08
53715;BME280;39608;55.630;37.864;2024-03-07T17:37:22;99786.84;;;0.53;38.08
53715;BME280;39608;55.630;37.864;2024-03-07T17:42:24;99780.31;;;0.48;38.19
53715;BME280;39608;55.630;37.864;2024-03-07T17:47:27;99783.53;;;0.32;39.01
53715;BME280;39608;55.630;37.864;2024-03-07T17:52:31;99777.00;;;0.28;39.16
53715;BME280;39608;55.630;37.864;2024-03-07T17:57:35;99779.16;;;0.19;40.03
53715;BME280;39608;55.630;37.864;2024-03-07T18:02:37;99765.75;;;0.07;39.77
53715;BME280;39608;55.630;37.864;2024-03-07T18:07:41;99773.34;;;0.04;39.90
53715;BME280;39608;55.630;37.864;2024-03-07T18:12:44;99772.00;;;-0.06;39.93
53715;BME280;39608;55.630;37.864;2024-03-07T18:17:50;99763.69;;;-0.16;40.96
53715;BME280;39608;55.630;37.864;2024-03-07T18:22:59;99766.38;;;-0.23;41.74
53715;BME280;39608;55.630;37.864;2024-03-07T18:28:02;99764.59;;;-0.29;41.56
53715;BME280;39608;55.630;37.864;2024-03-07T18:33:05;99770.41;;;-0.39;42.17
53715;BME280;39608;55.630;37.864;2024-03-07T18:38:10;99765.38;;;-0.54;42.59
53715;BME280;39608;55.630;37.864;2024-03-07T18:43:14;99764.44;;;-0.66;44.69
53715;BME280;39608;55.630;37.864;2024-03-07T18:48:16;99763.28;;;-0.77;45.48
53715;BME280;39608;55.630;37.864;2024-03-07T18:53:19;99752.50;;;-0.89;45.11
53715;BME280;39608;55.630;37.864;2024-03-07T18:58:21;99746.63;;;-1.04;45.51
53715;BME280;39608;55.630;37.864;2024-03-07T19:03:26;99749.50;;;-1.06;45.48
53715;BME280;39608;55.630;37.864;2024-03-07T19:08:30;99735.66;;;-1.21;47.72
53715;BME280;39608;55.630;37.864;2024-03-07T19:13:34;99725.47;;;-1.24;47.36
53715;BME280;39608;55.630;37.864;2024-03-07T19:18:37;99717.53;;;-1.38;47.50
53715;BME280;39608;55.630;37.864;2024-03-07T19:23:45;99715.72;;;-1.44;48.30
53715;BME280;39608;55.630;37.864;2024-03-07T19:28:47;99710.00;;;-1.54;49.50
53715;BME280;39608;55.630;37.864;2024-03-07T19:33:49;99713.31;;;-1.59;49.77
53715;BME280;39608;55.630;37.864;2024-03-07T19:38:53;99714.16;;;-1.65;50.48
53715;BME280;39608;55.630;37.864;2024-03-07T19:43:55;99705.78;;;-1.75;50.23
53715;BME280;39608;55.630;37.864;2024-03-07T19:48:58;99698.88;;;-1.83;50.48
53715;BME280;39608;55.630;37.864;2024-03-07T19:54:01;99697.66;;;-1.87;50.85
53715;BME280;39608;55.630;37.864;2024-03-07T19:59:05;99696.22;;;-1.90;51.29
53715;BME280;39608;55.630;37.864;2024-03-07T20:04:07;99690.09;;;-1.97;51.08
53715;BME280;39608;55.630;37.864;2024-03-07T20:09:11;99689.09;;;-2.09;52.87
53715;BME280;39608;55.630;37.864;2024-03-07T20:14:17;99680.53;;;-2.18;52.52
53715;BME280;39608;55.630;37.864;2024-03-07T20:19:20;99679.13;;;-2.27;53.31
53715;BME280;39608;55.630;37.864;2024-03-07T20:24:24;99675.66;;;-2.34;52.53
53715;BME280;39608;55.630;37.864;2024-03-07T20:29:26;99669.75;;;-2.36;53.59
53715;BME280;39608;55.630;37.864;2024-03-07T20:34:29;99678.31;;;-2.34;52.95
53715;BME280;39608;55.630;37.864;2024-03-07T20:39:33;99664.84;;;-2.46;53.46
53715;BME280;39608;55.630;37.864;2024-03-07T20:44:35;99668.53;;;-2.47;54.03
53715;BME280;39608;55.630;37.864;2024-03-07T20:49:37;99666.28;;;-2.50;54.18
53715;BME280;39608;55.630;37.864;2024-03-07T20:54:42;99657.31;;;-2.56;54.48
53715;BME280;39608;55.630;37.864;2024-03-07T20:59:45;99658.53;;;-2.65;54.64
53715;BME280;39608;55.630;37.864;2024-03-07T21:04:47;99659.53;;;-2.73;54.58
53715;BME280;39608;55.630;37.864;2024-03-07T21:09:50;99662.81;;;-2.71;54.63
53715;BME280;39608;55.630;37.864;2024-03-07T21:14:53;99658.72;;;-2.73;55.00
53715;BME280;39608;55.630;37.864;2024-03-07T21:19:57;99646.88;;;-2.64;54.83
53715;BME280;39608;55.630;37.864;2024-03-07T21:25:00;99635.03;;;-2.62;55.20
53715;BME280;39608;55.630;37.864;2024-03-07T21:30:05;99629.31;;;-2.65;55.10
53715;BME280;39608;55.630;37.864;2024-03-07T21:35:08;99624.41;;;-2.62;55.40
53715;BME280;39608;55.630;37.864;2024-03-07T21:40:13;99633.00;;;-2.46;55.41
53715;BME280;39608;55.630;37.864;2024-03-07T21:45:17;99626.84;;;-2.47;55.39
53715;BME280;39608;55.630;37.864;2024-03-07T21:50:20;99615.81;;;-2.37;55.02
53715;BME280;39608;55.630;37.864;2024-03-07T21:55:24;99617.00;;;-2.19;54.80
53715;BME280;39608;55.630;37.864;2024-03-07T22:00:27;99602.03;;;-2.07;55.18
53715;BME280;39608;55.630;37.864;2024-03-07T22:05:31;99617.34;;;-1.96;54.59
53715;BME280;39608;55.630;37.864;2024-03-07T22:10:35;99617.28;;;-1.89;54.97
53715;BME280;39608;55.630;37.864;2024-03-07T22:15:38;99626.88;;;-1.75;54.16
53715;BME280;39608;55.630;37.864;2024-03-07T22:20:40;99620.47;;;-1.67;53.83
53715;BME280;39608;55.630;37.864;2024-03-07T22:25:43;99620.88;;;-1.63;54.04
53715;BME280;39608;55.630;37.864;2024-03-07T22:30:45;99610.28;;;-1.70;53.88
53715;BME280;39608;55.630;37.864;2024-03-07T22:35:47;99612.16;;;-1.77;53.89
53715;BME280;39608;55.630;37.864;2024-03-07T22:40:52;99611.72;;;-1.74;54.14
53715;BME280;39608;55.630;37.864;2024-03-07T22:45:54;99608.28;;;-1.81;54.22
53715;BME280;39608;55.630;37.864;2024-03-07T22:50:56;99596.41;;;-1.79;54.43
53715;BME280;39608;55.630;37.864;2024-03-07T22:55:59;99608.66;;;-1.78;54.14
53715;BME280;39608;55.630;37.864;2024-03-07T23:01:01;99599.28;;;-1.80;53.39
53715;BME280;39608;55.630;37.864;2024-03-07T23:06:05;99575.25;;;-2.05;53.55
53715;BME280;39608;55.630;37.864;2024-03-07T23:11:08;99590.03;;;-2.30;54.47
53715;BME280;39608;55.630;37.864;2024-03-07T23:16:10;99589.09;;;-2.69;54.87
53715;BME280;39608;55.630;37.864;2024-03-07T23:21:12;99574.03;;;-2.95;55.42
53715;BME280;39608;55.630;37.864;2024-03-07T23:26:16;99568.06;;;-3.11;55.58
53715;BME280;39608;55.630;37.864;2024-03-07T23:31:18;99565.22;;;-3.29;55.53
53715;BME280;39608;55.630;37.864;2024-03-07T23:36:20;99563.16;;;-3.47;56.00
53715;BME280;39608;55.630;37.864;2024-03-07T23:41:24;99547.63;;;-3.57;56.14
53715;BME280;39608;55.630;37.864;2024-03-07T23:46:26;99550.91;;;-3.55;56.08
53715;BME280;39608;55.630;37.864;2024-03-07T23:51:28;99552.13;;;-3.57;56.41
53715;BME280;39608;55.630;37.864;2024-03-07T23:56:31;99552.97;;;-3.50;55.92
